Flight Number: EUR2340 Duration: 3:00
Departure: Antalya (LTAI) at 06:00 Distance: 1080 Nm
Arrival: Munich Int'l (EDDM) at 09:00 Equipment: A321

Weather Information
Antalya, Turkey (LTAI) 36-42N 030-44E 57M May 20, 2018 - 09:50 AM EDT / 2018.05.20 1350 UTC
Wind: from the S (190 degrees) at 10 MPH (9 KT):0
Visibility: greater than 7 mile(s):0
Sky conditions: partly cloudy Weather: Towering cumulus clouds observed Temperature: 86 F (30 C) Dew Point: 57 F (14 C) Relative Humidity: 37% Pressure (altimeter): 29.80 in. Hg (1009 hPa)
ob: LTAI 201350Z 19009KT 9999 FEW020TCU SCT030 30/14 Q1009 NOSIG cycle: 14
Sunrise: 02:48 Sunset: 16:58 (UTC)

Munchen, Germany (EDDM) 48-21N 011-47E May 20, 2018 - 09:50 AM EDT / 2018.05.20 1350 UTC
Wind: from the E (080 degrees) at 16 MPH (14 KT) (direction variable):0
Visibility: greater than 7 mile(s):0 Temperature: 69 F (21 C) Dew Point: 46 F (8 C) Relative Humidity: 43% Pressure (altimeter): 30.06 in. Hg (1018 hPa)
ob: EDDM 201350Z 08014KT 040V110 CAVOK 21/08 Q1018 NOSIG cycle: 14
Sunrise: 03:30 Sunset: 18:48 (UTC)

TAF:2018/05/20 12:27 TAF EDDM 201100Z 2012/2118 09015G25KT 9999 SCT040 BECMG 2017/2020 07008KT PROB30 TEMPO 2114/2118 SHRA SCT050TCU

Previous Pireps for this route
Date Aircraft Flight time Fuel used Landing rate On time
2015-01-07A32102.5417912-205Charter
2016-01-18A32103.0616984-2No
2016-04-05A32103.3526587-465.38No
2016-09-30A330-20002.3440823-171Charter
(pireps marked green are flown by you)

Route map